Chadstone Weather > Observations for 17/03/21

Select Day:



Observations
Time Temp Hum DP Wind Gust Dir Rain >9am Press
C % C kph kph mm hPa
00:00 18.2 81 14.9 0.6 5.0 E 0.0 1007.1
00:10 18.0 81 14.7 1.6 6.1 SSE 0.0 1007.3
00:20 18.0 82 14.9 1.4 6.1 ENE 0.0 1007.4
00:30 17.9 82 14.8 0.9 6.1 NE 0.0 1007.1
00:40 17.9 82 14.8 1.1 6.1 NNE 0.0 1007.2
00:50 17.9 82 14.8 0.3 2.5 NE 0.0 1007.4
01:00 17.7 82 14.6 0.0 2.5 NE 0.0 1006.9
01:10 17.4 82 14.3 0.1 3.6 SE 0.0 1007.2
01:20 17.2 83 14.3 0.3 5.0 ESE 0.0 1007.0
01:30 17.1 83 14.2 0.1 1.1 NNW 0.0 1007.6
01:40 17.0 83 14.1 0.0 0.0 N 0.0 1007.1
01:50 16.9 85 14.4 0.0 0.0 N 0.0 1007.1
02:00 16.8 85 14.3 0.0 0.0 N 0.0 1007.3
02:10 16.5 85 14.0 0.0 0.0 N 0.0 1007.0
02:20 16.4 85 13.9 0.0 0.0 N 0.0 1007.0
02:30 16.3 86 14.0 0.0 0.0 N 0.0 1007.3
02:40 16.1 86 13.8 0.0 0.0 N 0.0 1007.1
02:50 16.0 86 13.7 0.0 0.0 N 0.0 1007.0
03:00 15.9 88 13.9 0.0 0.0 N 0.0 1007.3
03:10 15.8 88 13.8 0.0 0.0 N 0.0 1007.0
03:20 15.7 88 13.7 0.0 0.0 N 0.0 1006.9
03:30 15.7 89 13.9 0.0 0.0 N 0.0 1007.0
03:40 15.7 89 13.9 0.1 3.6 N 0.0 1007.3
03:50 15.9 90 14.3 0.9 5.0 N 0.0 1007.4
04:00 16.0 89 14.2 1.9 6.1 N 0.0 1007.3
04:10 15.9 90 14.3 0.2 3.6 N 0.0 1007.0
04:20 15.7 90 14.1 0.0 0.0 N 0.0 1007.2
04:30 15.7 90 14.1 0.0 0.0 N 0.0 1006.9
04:40 15.5 90 13.9 0.0 0.0 N 0.0 1006.9
04:50 15.4 91 13.9 0.0 0.0 N 0.0 1006.9
05:00 15.4 91 13.9 0.0 0.0 N 0.0 1006.9
05:10 15.3 91 13.8 0.0 0.0 N 0.0 1007.3
05:20 15.2 91 13.7 0.0 0.0 N 0.0 1007.1
05:30 15.2 91 13.7 0.0 1.1 N 0.0 1007.1
05:40 15.1 91 13.6 0.0 0.0 N 0.0 1007.0
05:50 15.0 92 13.7 0.0 0.0 N 0.0 1007.2
06:00 15.0 92 13.7 0.0 0.0 N 0.0 1008.4
06:10 15.2 93 14.1 0.0 0.0 N 0.0 1008.6
06:20 15.1 92 13.8 0.0 0.0 N 0.0 1008.8
06:30 15.1 92 13.8 0.0 0.0 N 0.0 1008.9
06:40 15.1 93 14.0 0.0 0.0 N 0.0 1008.8
06:50 15.1 92 13.8 0.0 0.0 N 0.0 1009.0
07:00 15.0 92 13.7 0.0 0.0 N 0.0 1009.3
07:10 14.9 93 13.8 0.0 1.1 NE 0.0 1009.3
07:20 14.9 94 13.9 0.1 2.5 E 0.0 1009.4
07:30 14.9 94 13.9 0.0 2.5 ENE 0.0 1009.4
07:40 14.9 94 13.9 0.0 1.1 ENE 0.0 1009.5
07:50 15.0 93 13.9 0.0 0.0 N 0.0 1009.6
08:00 15.1 93 14.0 0.0 0.0 N 0.0 1009.1
08:10 15.3 94 14.3 0.0 0.0 N 0.0 1009.7
08:20 15.7 94 14.7 0.0 0.0 N 0.0 1009.9
08:30 16.0 93 14.9 0.0 0.0 N 0.0 1009.8
08:40 16.3 93 15.2 0.0 2.5 NE 0.0 1009.8
08:50 16.5 93 15.4 0.0 1.1 N 0.0 1009.8
09:00 16.7 92 15.4 0.0 2.5 ENE 0.0 1009.7
09:10 17.0 91 15.5 0.0 0.0 N 0.0 1009.7
09:20 17.3 90 15.7 0.0 0.0 N 0.0 1009.8
09:30 17.7 90 16.1 0.9 3.6 N 0.0 1009.7
09:40 17.9 88 15.9 1.2 6.1 N 0.0 1009.8
09:50 18.1 88 16.1 0.4 6.1 NNW 0.0 1009.8
10:00 18.5 87 16.3 0.5 6.1 NNE 0.0 1009.7
10:10 19.0 86 16.6 0.9 3.6 N 0.0 1009.8
10:20 19.5 85 16.9 0.3 3.6 E 0.0 1009.8
10:30 20.1 82 16.9 1.6 7.2 NE 0.0 1009.8
10:40 20.6 79 16.8 1.5 6.1 E 0.0 1009.9
10:50 21.0 77 16.8 1.3 3.6 N 0.0 1009.9
11:00 21.4 74 16.6 1.0 5.0 SSE 0.0 1009.7
11:10 21.6 72 16.4 0.7 6.1 SE 0.0 1009.7
11:20 22.3 70 16.6 1.8 9.7 SE 0.0 1009.4
11:30 22.6 69 16.6 0.2 5.0 SW 0.0 1009.4
11:40 23.3 67 16.8 3.0 8.6 SE 0.0 1009.1
11:50 23.5 65 16.6 2.3 8.6 SE 0.0 1009.2
12:00 23.8 65 16.8 2.6 7.2 SSE 0.0 1009.1
12:10 24.3 60 16.1 2.2 7.2 SSE 0.0 1008.9
12:20 24.8 61 16.8 1.7 7.2 WSW 0.0 1008.9
12:30 25.0 56 15.6 1.6 7.2 SSE 0.0 1008.8
12:40 25.3 56 15.9 3.1 11.2 SSE 0.0 1008.7
12:50 25.6 54 15.6 2.3 7.2 ENE 0.0 1008.7
13:00 25.9 54 15.9 1.0 7.2 WSW 0.0 1008.5
13:10 26.2 52 15.6 1.5 6.1 SSE 0.0 1008.4
13:20 26.4 52 15.8 1.5 7.2 E 0.0 1008.3
13:30 26.7 50 15.4 1.4 6.1 S 0.0 1008.1
13:40 26.4 50 15.2 5.4 11.2 S 0.0 1007.9
13:50 26.9 50 15.6 1.8 7.2 NE 0.0 1007.7
14:00 27.3 48 15.4 1.6 7.2 SE 0.0 1007.5
14:10 27.4 47 15.1 3.2 11.2 SE 0.0 1007.4
14:20 26.4 49 14.8 1.0 8.6 SSW 0.0 1007.4
14:30 26.1 49 14.6 2.8 8.6 S 0.0 1007.3
14:40 26.2 51 15.3 2.3 9.7 E 0.0 1007.2
14:50 26.7 49 15.1 4.1 11.2 ESE 0.0 1007.0
15:00 26.8 47 14.6 4.9 13.3 SE 0.0 1006.9
15:10 26.8 47 14.6 3.1 9.7 N 0.0 1006.7
15:20 26.5 47 14.3 4.8 12.2 ESE 0.0 1006.6
15:30 27.0 47 14.7 6.5 14.8 ESE 0.0 1006.6
15:40 27.2 45 14.3 6.5 15.8 S 0.0 1006.4
15:50 27.3 46 14.7 4.1 15.8 NNE 0.0 1006.2
16:00 27.3 45 14.3 9.8 18.4 SE 0.0 1006.2
16:10 27.1 46 14.5 3.1 14.8 SSE 0.0 1006.1
16:20 27.0 46 14.4 4.3 18.4 SSE 0.0 1006.1
16:30 27.0 46 14.4 2.5 8.6 SSW 0.0 1006.1
16:40 27.1 46 14.5 5.1 19.4 SSE 0.0 1006.1
16:50 27.0 46 14.4 4.7 15.8 S 0.0 1006.0
17:00 26.7 48 14.8 4.0 18.4 S 0.0 1005.9
17:10 26.6 46 14.1 6.5 18.4 SSE 0.0 1006.0
17:20 26.7 48 14.8 4.2 13.3 SSE 0.0 1005.9
17:30 26.7 46 14.1 7.6 17.3 SSE 0.0 1005.9
17:52 26.7 45 13.8 5.0 8.6 SE 0.0 1005.7
18:22 26.0 45 13.1 3.6 8.6 SE 0.0 1005.6
18:52 25.4 48 13.6 8.6 13.3 NW 0.0 1005.9
19:22 24.5 49 13.1 11.2 18.4 SE 0.0 1005.8
19:52 23.6 51 12.9 8.6 14.8 SE 0.0 1006.1
20:22 22.8 53 12.7 6.1 9.7 SE 0.0 1006.4
20:52 22.1 55 12.6 5.0 13.3 E 0.0 1007.0
21:22 21.3 61 13.5 6.1 13.3 SE 0.0 1007.8
21:40 20.8 63 13.5 7.2 14.8 SSE 0.0 1008.7
21:50 20.5 64 13.5 8.2 19.4 ESE 0.0 1009.3
22:00 20.4 64 13.4 5.1 12.2 SE 0.0 1009.5
22:10 20.3 65 13.5 5.7 13.3 SE 0.0 1009.7
22:20 20.2 66 13.7 5.4 11.2 SE 0.0 1010.1
22:30 20.0 66 13.5 5.8 11.2 SE 0.0 1010.0
22:40 19.9 68 13.8 5.7 13.3 SE 0.0 1009.9
22:50 19.7 68 13.6 6.1 12.2 SSE 0.0 1008.6
23:00 19.5 69 13.7 3.2 12.2 SE 0.0 1008.7
23:10 19.3 70 13.7 1.8 7.2 SE 0.0 1009.4
23:20 19.1 70 13.5 1.5 7.2 SE 0.0 1009.2
23:30 19.0 71 13.6 1.4 7.2 SSE 0.0 1008.2
23:40 18.9 73 14.0 1.3 6.1 SE 0.0 1008.9
23:50 18.8 73 13.9 1.2 6.1 SE 0.0 1008.9